Terminal Aerodrome Forecast
Issued by NWS Sterling, VA

Home | Current Version | Previous Version | Text Only | Print | Product List | Glossary On
Versions: 1 2 3 4 5 6 7 8 9 10 11 12 13 14
000
FTUS41 KLWX 252341
TAFMRB
TAF
KMRB 252341Z 2600/2624 32005KT P6SM BKN050
     FM260200 VRB03KT P6SM SCT050
     FM260800 00000KT 5SM BR SCT025
     FM261200 VRB03KT P6SM SCT040
     FM261500 14004KT P6SM SCT050=

USA.gov is the U.S. government's official web portal to all federal, state and local government web resources and services.